Flight Track Log - Related Links

Times and Time Zones

All times are in EST time to prevent confusion due to time zone crossing. See the SKW5631 flight status page for this flight to view local times or setup timezone preferences in your user account.

Time Position Orientation Groundspeed Altitude Reporting Facility
EST Latitude Longitude Course Direction KTS MPH feet Rate Location/Type
Mon 11:15:03 PM 37.6833 -122.3667 138° Southeast 205 236 3,100  Level Northern Cal TRACON
Mon 11:16:03 PM 37.6667 -122.4333 252° West 256 295 5,200 2,200 Climbing Northern Cal TRACON
Mon 11:17:00 PM 37.2645 -121.9341 133° Southeast  Level Estimated
Mon 11:17:03 PM 37.5833 -122.4333 180° South 284 327 7,500  Level Northern Cal TRACON
Mon 11:18:00 PM 37.1755 -121.8245 135° Southeast  Level Estimated
Mon 11:18:03 PM 37.5000 -122.4167 171° South 294 338 9,900  Level Northern Cal TRACON
Mon 11:19:00 PM 37.0865 -121.7151 141° Southeast  Level Estimated
Mon 11:19:03 PM 37.4500 -122.3500 133° Southeast 299 344 11,600  Level Northern Cal TRACON
Mon 11:20:00 PM 36.9974 -121.6060 138° Southeast  Level Estimated
Mon 11:20:03 PM 37.3667 -122.2833 148° Southeast 342 394 12,600  Level Northern Cal TRACON
Mon 11:21:15 PM 37.2956 -122.1972 136° Southeast 351 404 14,300 1,409 Climbing Oakland Center
Mon 11:22:15 PM 37.2194 -122.1158 140° Southeast 357 411 15,700 1,388 Climbing Oakland Center
Mon 11:23:16 PM 37.1439 -122.0325 139° Southeast 363 418 17,100 1,131 Climbing Oakland Center
Mon 11:24:17 PM 37.0508 -121.9306 139° Southeast 368 423 18,000 885 Climbing Oakland Center
Mon 11:25:18 PM 36.9706 -121.8439 139° Southeast 381 438 18,900 927 Climbing Oakland Center
Mon 11:26:20 PM 36.8881 -121.7550 139° Southeast 390 449 19,900 976 Climbing Oakland Center
Mon 11:27:21 PM 36.8081 -121.6669 139° Southeast 397 457 20,900 984 Climbing Oakland Center
Mon 11:28:22 PM 36.7217 -121.5769 140° Southeast 403 464 21,900 984 Climbing Oakland Center
Mon 11:29:23 PM 36.6378 -121.4828 138° Southeast 407 468 22,900 984 Climbing Oakland Center
Mon 11:30:24 PM 36.5503 -121.3911 140° Southeast 409 471 23,900 984 Climbing Oakland Center
Mon 11:31:25 PM 36.4650 -121.2986 139° Southeast 409 471 24,900 541 Climbing Oakland Center
Mon 11:32:26 PM 36.3769 -121.2056 140° Southeast 413 475 25,000 49 Climbing Oakland Center
Mon 11:33:27 PM 36.2847 -121.1075 139° Southeast 431 496 25,000  Level Oakland Center
Mon 11:34:28 PM 36.1703 -120.9858 139° Southeast 448 516 25,000  Level Oakland Center
Mon 11:35:29 PM 36.0742 -120.8850 140° Southeast 453 521 25,000  Level Oakland Center
Mon 11:36:30 PM 35.9764 -120.7814 139° Southeast 459 528 25,000  Level Oakland Center
Mon 11:37:31 PM 35.8789 -120.6786 139° Southeast 462 532 25,000  Level Oakland Center
Mon 11:38:32 PM 35.7814 -120.5764 140° Southeast 461 531 25,000  Level Oakland Center
Mon 11:39:33 PM 35.6833 -120.4742 140° Southeast 460 529 25,000  Level Oakland Center
Mon 11:40:34 PM 35.5856 -120.3725 140° Southeast 459 528 25,000  Level Oakland Center
Mon 11:41:35 PM 35.4850 -120.2686 140° Southeast 461 531 25,000  Level Oakland Center
Mon 11:42:36 PM 35.3842 -120.1628 139° Southeast 463 533 25,000  Level Oakland Center
Mon 11:43:38 PM 35.2842 -120.0614 140° Southeast 462 532 25,000  Level Oakland Center
Mon 11:44:39 PM 35.1861 -119.9611 140° Southeast 459 528 25,000  Level Oakland Center
Mon 11:45:40 PM 35.0892 -119.8589 139° Southeast 459 528 25,000 -541 Level Oakland Center
Mon 11:46:41 PM 35.0042 -119.7444 132° Southeast 456 525 23,900 -1,574 Descending Oakland Center
Mon 11:47:42 PM 34.9192 -119.6294 132° Southeast 457 526 21,800 -2,066 Descending Oakland Center
Mon 11:48:43 PM 34.8381 -119.5214 132° Southeast 443 510 19,700 -1,869 Descending Oakland Center
Mon 11:49:44 PM 34.7633 -119.4194 132° Southeast 416 479 18,000 -2,066 Descending Oakland Center
Mon 11:50:45 PM 34.6750 -119.3031 133° Southeast 396 456 15,500 -2,213 Descending Oakland Center
Mon 11:51:46 PM 34.6039 -119.2075 132° Southeast 386 444 13,500 -1,703 Descending Oakland Center
Mon 11:53:13 PM 34.5167 -119.0833 130° Southeast 321 369 11,300 -1,102 Descending Southern California TRACON
Mon 11:54:13 PM 34.4500 -119.0167 140° Southeast 285 328 10,800 -1,050 Descending Southern California TRACON
Mon 11:55:13 PM 34.4167 -118.9333 116° Southeast 274 315 9,200 -1,579 Descending Southern California TRACON
Mon 11:56:07 PM 34.3667 -118.8833 140° Southeast 260 299 7,800 -1,526 Descending Southern California TRACON
Mon 11:57:07 PM 34.3333 -118.8167 121° Southeast 254 292 6,300 -1,429 Descending Southern California TRACON
Mon 11:58:13 PM 34.2833 -118.7333 126° Southeast 248 285 4,800 -1,095 Descending Southern California TRACON
Mon 11:59:13 PM 34.2333 -118.6833 140° Southeast 228 262 4,000 -421 Descending Southern California TRACON
Tue 12:00:07 AM 34.2167 -118.6167 107° East 212 244 4,000 -526 Level Southern California TRACON
Tue 12:01:07 AM 34.2000 -118.5500 107° East 211 243 3,000 -550 Descending Southern California TRACON
Tue 12:02:07 AM 34.2000 -118.5000 90° East 166 191 2,900 -450 Descending Southern California TRACON
Tue 12:03:07 AM 34.2000 -118.4500 90° East 142 163 2,100 -842 Descending Southern California TRACON
Tue 12:04:01 AM 34.2000 -118.4000 90° East 143 165 1,300 -695 Descending Southern California TRACON
Tue 12:04:42 AM 34.1989 -118.3694 93° East 158 182 1,000 -439 Descending Los Angeles Center

Login

Don't have an account? Register now (free) for customized features, flight alerts, and more!